createdAt,value
2023-05-18T00:03:50.288Z,1.70
2023-05-18T00:08:54.370Z,1.43
2023-05-18T00:14:01.125Z,2.20
2023-05-18T00:19:06.579Z,1.73
2023-05-18T00:24:14.214Z,1.93
2023-05-18T00:29:24.804Z,2.13
2023-05-18T00:34:32.963Z,2.30
2023-05-18T00:39:37.082Z,2.13
2023-05-18T00:44:47.649Z,1.70
2023-05-18T00:49:52.703Z,1.90
2023-05-18T00:54:58.763Z,1.93
2023-05-18T01:00:11.936Z,2.00
2023-05-18T01:05:19.146Z,1.73
2023-05-18T01:10:25.563Z,2.00
2023-05-18T01:15:37.776Z,2.00
2023-05-18T01:20:48.394Z,2.00
2023-05-18T01:26:10.407Z,1.50
2023-05-18T01:31:26.700Z,1.90
2023-05-18T01:36:33.686Z,2.07
2023-05-18T01:41:46.092Z,1.93
2023-05-18T01:46:58.548Z,2.07
2023-05-18T01:52:07.554Z,1.77
2023-05-18T01:57:14.644Z,1.80
2023-05-18T02:02:22.285Z,2.50
2023-05-18T02:07:27.418Z,2.20
2023-05-18T02:12:33.592Z,2.30
2023-05-18T02:17:39.680Z,2.03
2023-05-18T02:22:48.592Z,1.87
2023-05-18T02:27:56.272Z,2.07
2023-05-18T02:33:01.786Z,2.40
2023-05-18T02:38:06.598Z,2.33
2023-05-18T02:43:30.534Z,2.37
2023-05-18T02:48:40.502Z,2.23
2023-05-18T02:53:51.042Z,2.17
2023-05-18T02:58:58.562Z,2.57
2023-05-18T03:04:03.937Z,2.10
2023-05-18T03:09:11.038Z,2.33
2023-05-18T03:14:19.457Z,2.20
2023-05-18T03:19:23.854Z,2.17
2023-05-18T03:24:40.920Z,2.30
2023-05-18T03:29:49.215Z,2.07
2023-05-18T03:34:54.799Z,2.20
2023-05-18T03:40:10.770Z,2.00
2023-05-18T03:45:22.811Z,2.50
2023-05-18T03:50:29.704Z,2.63
2023-05-18T03:55:34.688Z,2.00
2023-05-18T04:00:42.887Z,2.40
2023-05-18T04:05:49.858Z,2.07
2023-05-18T04:10:54.676Z,1.97
2023-05-18T04:16:03.901Z,2.10
2023-05-18T04:21:12.265Z,2.20
2023-05-18T04:26:20.257Z,2.63
2023-05-18T04:31:27.493Z,2.33
2023-05-18T04:36:32.533Z,2.67
2023-05-18T04:41:39.506Z,2.23
2023-05-18T04:46:48.138Z,2.50
2023-05-18T04:51:56.629Z,2.70
2023-05-18T04:57:02.473Z,2.10
2023-05-18T05:02:09.827Z,2.27
2023-05-18T05:07:15.194Z,2.20
2023-05-18T05:12:26.335Z,2.07
2023-05-18T05:17:36.411Z,1.97
2023-05-18T05:22:41.127Z,2.13
2023-05-18T05:27:45.848Z,1.75
2023-05-18T05:32:53.843Z,1.60
2023-05-18T05:38:01.637Z,1.40
2023-05-18T05:43:07.202Z,2.20
2023-05-18T05:48:14.690Z,2.08
2023-05-18T05:53:20.128Z,1.75
2023-05-18T05:58:25.124Z,1.60
2023-05-18T06:03:35.813Z,1.60
2023-05-18T06:08:43.096Z,3.80
2023-05-18T06:13:48.219Z,1.73
2023-05-18T06:18:58.179Z,2.13
2023-05-18T06:24:04.776Z,1.90
2023-05-18T06:29:09.424Z,1.50
2023-05-18T06:34:22.108Z,2.10
2023-05-18T06:39:40.837Z,1.85
2023-05-18T06:44:45.370Z,1.70
2023-05-18T06:49:59.027Z,1.73
2023-05-18T06:55:10.130Z,1.58
2023-05-18T07:00:19.813Z,2.15
2023-05-18T07:05:39.131Z,1.98
2023-05-18T07:10:44.658Z,2.00
2023-05-18T07:15:53.423Z,2.17
2023-05-18T07:21:01.544Z,2.00
2023-05-18T07:26:10.287Z,1.88
2023-05-18T07:31:17.141Z,2.25
2023-05-18T07:36:34.406Z,2.25
2023-05-18T07:41:49.836Z,1.80
2023-05-18T07:46:56.802Z,1.70
2023-05-18T07:52:13.141Z,1.70
2023-05-18T07:57:26.842Z,1.60
2023-05-18T08:02:45.585Z,2.00
2023-05-18T08:07:53.640Z,2.10
2023-05-18T08:13:10.136Z,2.15
2023-05-18T08:18:18.296Z,1.48
2023-05-18T08:23:27.846Z,1.60
2023-05-18T08:28:51.750Z,1.60
2023-05-18T08:33:56.162Z,1.77
2023-05-18T08:39:11.785Z,1.75
2023-05-18T08:44:30.155Z,1.55
2023-05-18T08:49:46.034Z,1.92
2023-05-18T08:55:01.804Z,1.60
2023-05-18T09:00:13.509Z,1.67
2023-05-18T09:05:25.786Z,1.70
2023-05-18T09:10:46.934Z,1.67
2023-05-18T09:15:53.483Z,1.60
2023-05-18T09:21:12.374Z,1.75
2023-05-18T09:26:20.181Z,1.90
2023-05-18T09:31:40.591Z,2.50
2023-05-18T09:36:50.085Z,2.40
2023-05-18T09:42:01.866Z,1.73
2023-05-18T09:47:10.514Z,1.45
2023-05-18T09:52:19.212Z,1.58
2023-05-18T09:57:25.025Z,2.42
2023-05-18T10:02:49.603Z,1.95
2023-05-18T10:08:15.159Z,2.28
2023-05-18T10:13:25.470Z,3.30
2023-05-18T10:18:40.607Z,1.85
2023-05-18T10:23:52.916Z,1.80
2023-05-18T10:29:38.400Z,1.50
2023-05-18T10:34:49.814Z,2.55
2023-05-18T10:39:58.688Z,2.47
2023-05-18T10:45:08.494Z,1.95
2023-05-18T10:50:42.321Z,1.60
2023-05-18T10:55:57.944Z,1.60
2023-05-18T11:01:03.985Z,1.75
2023-05-18T11:06:15.211Z,1.48
2023-05-18T11:11:20.268Z,1.10
2023-05-18T11:16:35.517Z,1.20
2023-05-18T11:22:22.463Z,2.00
2023-05-18T11:27:37.917Z,1.60
2023-05-18T11:32:41.842Z,1.60
2023-05-18T11:38:20.214Z,1.15
2023-05-18T11:43:31.785Z,1.40
2023-05-18T11:48:36.345Z,1.27
2023-05-18T11:53:50.771Z,1.33
2023-05-18T11:59:16.519Z,1.10
2023-05-18T12:04:26.352Z,1.40
2023-05-18T12:09:42.800Z,1.30
2023-05-18T12:15:03.978Z,1.50
2023-05-18T12:20:24.443Z,1.40
2023-05-18T12:25:43.204Z,1.40
2023-05-18T12:30:51.420Z,1.27
2023-05-18T12:36:07.715Z,1.70
2023-05-18T12:41:34.269Z,1.02
2023-05-18T12:46:49.207Z,1.50
2023-05-18T12:52:10.190Z,1.30
2023-05-18T12:57:21.427Z,1.60
2023-05-18T13:02:34.243Z,1.42
2023-05-18T13:07:41.215Z,1.17
2023-05-18T13:12:54.060Z,1.17
2023-05-18T13:18:10.792Z,1.15
2023-05-18T13:23:21.888Z,1.20
2023-05-18T13:28:34.722Z,1.85
2023-05-18T13:33:40.518Z,1.42
2023-05-18T13:38:54.584Z,1.40
2023-05-18T13:44:04.763Z,1.40
2023-05-18T13:49:13.342Z,1.20
2023-05-18T13:54:29.383Z,1.50
2023-05-18T13:59:46.176Z,1.65
2023-05-18T14:04:54.186Z,1.70
2023-05-18T14:10:05.529Z,1.50
2023-05-18T14:15:15.948Z,1.38
2023-05-18T14:20:20.778Z,1.42
2023-05-18T14:25:27.656Z,1.38
2023-05-18T14:30:44.148Z,1.38
2023-05-18T14:35:48.420Z,1.42
2023-05-18T14:41:01.010Z,1.40
2023-05-18T14:46:12.212Z,1.20
2023-05-18T14:51:18.843Z,1.50
2023-05-18T14:56:29.031Z,1.52
2023-05-18T15:01:44.497Z,1.48
2023-05-18T15:06:49.959Z,1.80
2023-05-18T15:11:56.797Z,1.10
2023-05-18T15:17:08.006Z,1.20
2023-05-18T15:22:21.415Z,1.40
2023-05-18T15:27:26.460Z,1.30
2023-05-18T15:32:38.025Z,1.48
2023-05-18T15:37:51.457Z,1.55
2023-05-18T15:43:02.853Z,1.33
2023-05-18T15:48:12.266Z,1.30
2023-05-18T15:53:17.918Z,1.55
2023-05-18T15:58:33.222Z,1.52
2023-05-18T16:03:38.886Z,1.45
2023-05-18T16:08:46.092Z,1.50
2023-05-18T16:13:56.757Z,1.27
2023-05-18T16:19:07.562Z,1.13
2023-05-18T16:24:14.803Z,1.48
2023-05-18T16:29:18.727Z,1.48
2023-05-18T16:34:31.160Z,1.30
2023-05-18T16:39:37.927Z,1.30
2023-05-18T16:45:11.220Z,1.10
2023-05-18T16:50:16.067Z,1.40
2023-05-18T16:55:21.841Z,2.00
2023-05-18T17:00:26.476Z,1.52
2023-05-18T17:05:49.683Z,1.27
2023-05-18T17:11:02.906Z,1.60
2023-05-18T17:16:19.079Z,1.35
2023-05-18T17:21:24.223Z,1.73
2023-05-18T17:26:30.788Z,1.40
2023-05-18T17:31:36.400Z,1.38
2023-05-18T17:36:59.534Z,1.75
2023-05-18T17:42:07.271Z,1.80
2023-05-18T17:47:13.479Z,1.75
2023-05-18T17:52:22.630Z,2.55
2023-05-18T17:57:30.675Z,2.42
2023-05-18T18:02:43.273Z,2.28
2023-05-18T18:07:50.924Z,5.25
2023-05-18T18:12:54.813Z,2.80
2023-05-18T18:18:00.877Z,2.58
2023-05-18T18:23:16.842Z,2.63
2023-05-18T18:28:24.462Z,3.50
2023-05-18T18:33:30.982Z,3.88
2023-05-18T18:38:48.520Z,2.83
2023-05-18T18:43:54.337Z,2.50
2023-05-18T18:48:58.275Z,2.15
2023-05-18T18:54:04.808Z,4.20
2023-05-18T18:59:13.350Z,3.30
2023-05-18T19:04:20.934Z,2.20
2023-05-18T19:09:31.166Z,2.65
2023-05-18T19:14:44.880Z,3.28
2023-05-18T19:19:49.204Z,2.80
2023-05-18T19:24:57.288Z,3.53
2023-05-18T19:30:07.671Z,4.47
2023-05-18T19:35:13.245Z,3.35
2023-05-18T19:40:20.195Z,4.45
2023-05-18T19:45:25.438Z,3.40
2023-05-18T19:50:31.004Z,3.08
2023-05-18T19:55:37.994Z,2.50
2023-05-18T20:00:47.807Z,3.70
2023-05-18T20:05:55.381Z,3.72
2023-05-18T20:11:03.954Z,3.45
2023-05-18T20:16:10.222Z,3.50
2023-05-18T20:21:37.981Z,3.85
2023-05-18T20:26:48.826Z,3.05
2023-05-18T20:31:56.566Z,3.38
2023-05-18T20:37:00.973Z,4.13
2023-05-18T20:42:22.699Z,3.95
2023-05-18T20:47:34.782Z,3.42
2023-05-18T20:52:39.850Z,2.58
2023-05-18T20:57:51.973Z,2.40
2023-05-18T21:02:57.665Z,2.20
2023-05-18T21:08:04.914Z,3.45
2023-05-18T21:13:11.133Z,4.20
2023-05-18T21:18:16.393Z,3.70
2023-05-18T21:23:22.036Z,3.78
2023-05-18T21:28:32.760Z,3.15
2023-05-18T21:33:39.964Z,3.03
2023-05-18T21:38:49.601Z,2.38
2023-05-18T21:43:56.185Z,3.08
2023-05-18T21:49:01.237Z,3.00
2023-05-18T21:54:19.040Z,3.22
2023-05-18T21:59:28.834Z,2.33
2023-05-18T22:04:32.597Z,2.28
2023-05-18T22:09:37.294Z,1.80
2023-05-18T22:14:43.015Z,1.73
2023-05-18T22:19:48.938Z,1.70
2023-05-18T22:24:53.197Z,2.10
2023-05-18T22:29:58.623Z,1.67
2023-05-18T22:35:04.003Z,1.75
2023-05-18T22:40:10.140Z,2.03
2023-05-18T22:45:20.361Z,1.70
2023-05-18T22:50:31.455Z,2.03
2023-05-18T22:55:37.596Z,1.38
2023-05-18T23:00:52.408Z,1.65
2023-05-18T23:05:57.882Z,1.95
2023-05-18T23:11:02.013Z,1.50
2023-05-18T23:16:13.029Z,2.05
2023-05-18T23:21:17.358Z,2.13
2023-05-18T23:26:24.079Z,1.95
2023-05-18T23:31:41.884Z,1.73
2023-05-18T23:36:48.558Z,1.40
2023-05-18T23:41:56.278Z,1.60
2023-05-18T23:47:05.721Z,1.40
2023-05-18T23:52:13.879Z,1.60
2023-05-18T23:57:20.414Z,1.50
